PWSweather.com
Personal Weather Stations
Station Observations
WAREHAM1
West Wareham, MA 02576

West Wareham, MA 02576

Lat: 41.7961059, Lon: -70.775612

Elevation: 88

Station Type: Davis Vantage Vue

http://www.gateway2capecod.net

Latest ConditionsUpdated 3:23:50 AM EST Thursday, Dec 12, 2019
Currently Today's Max Today's Min Today's Average
Temperature 24.3°F-4.3°C 25.5°F-3.6°C 24.3°F-4.3°C 25.0°F-3.9°C
Dew Point 21.0°F-6.1°C 24.6°F-4.1°C 21.0°F-6.1°C 23.3°F-4.8°C
Winds Calm Calm Calm -Calm - - Calm Calm
Wind Gusts -- 2.9 mph4.7 kmh - -
Humidity 87% 96% 87% 93%
Pressure 30.51 in1033.2 mb 30.51 in1033.2 mb 30.40 in1029.5 mb -
Hour Temp Dew Point Humidity Winds Wind Gusts Pressure Precip Precip Rate Daily Precip Total
03:23 AM 24.3°F-4.3°C 21.0°F-6.1°C 87% Calm Calm -- 30.51 in1033.2 mb 0.00 in0.0 mm 0.00 in0.0 mm 0.00 in0.0 mm
03:13 AM 24.6°F-4.1°C 21.4°F-5.9°C 87% Calm Calm 0.9 mph1.4 kmh 30.51 in1033.2 mb 0.00 in0.0 mm 0.00 in0.0 mm 0.00 in0.0 mm
03:03 AM 24.8°F-4.0°C 21.6°F-5.8°C 87% Calm Calm 0.9 mph1.4 kmh 30.50 in1032.8 mb 0.00 in0.0 mm 0.00 in0.0 mm 0.00 in0.0 mm
02:53 AM 24.8°F-4.0°C 22.1°F-5.5°C 89% Calm Calm 0.9 mph1.4 kmh 30.50 in1032.8 mb 0.00 in0.0 mm 0.00 in0.0 mm 0.00 in0.0 mm
02:43 AM 24.6°F-4.1°C 22.1°F-5.5°C 90% Calm Calm 2.0 mph3.2 kmh 30.50 in1032.8 mb 0.00 in0.0 mm 0.00 in0.0 mm 0.00 in0.0 mm
02:33 AM 24.8°F-4.0°C 22.3°F-5.4°C 90% Calm Calm 0.9 mph1.4 kmh 30.50 in1032.8 mb 0.00 in0.0 mm 0.00 in0.0 mm 0.00 in0.0 mm
02:23 AM 25.2°F-3.8°C 22.8°F-5.1°C 91% Calm Calm -- 30.50 in1032.8 mb 0.00 in0.0 mm 0.00 in0.0 mm 0.00 in0.0 mm
02:13 AM 25.3°F-3.7°C 23.4°F-4.8°C 92% Calm Calm 0.9 mph1.4 kmh 30.49 in1032.5 mb 0.00 in0.0 mm 0.00 in0.0 mm 0.00 in0.0 mm
02:03 AM 25.3°F-3.7°C 23.5°F-4.7°C 93% Calm Calm 1.0 mph1.6 kmh 30.49 in1032.5 mb 0.00 in0.0 mm 0.00 in0.0 mm 0.00 in0.0 mm
01:53 AM 25.3°F-3.7°C 23.5°F-4.7°C 93% Calm Calm -- 30.48 in1032.2 mb 0.00 in0.0 mm 0.00 in0.0 mm 0.00 in0.0 mm
01:43 AM 25.5°F-3.6°C 24.1°F-4.4°C 94% Calm Calm -- 30.47 in1031.8 mb 0.00 in0.0 mm 0.00 in0.0 mm 0.00 in0.0 mm
01:33 AM 25.5°F-3.6°C 24.3°F-4.3°C 95% Calm Calm 2.9 mph4.7 kmh 30.47 in1031.8 mb 0.00 in0.0 mm 0.00 in0.0 mm 0.00 in0.0 mm
01:23 AM 25.3°F-3.7°C 24.4°F-4.2°C 96% Calm Calm 1.0 mph1.6 kmh 30.45 in1031.2 mb 0.00 in0.0 mm 0.00 in0.0 mm 0.00 in0.0 mm
01:13 AM 25.3°F-3.7°C 24.4°F-4.2°C 96% Calm Calm 1.0 mph1.6 kmh 30.45 in1031.2 mb 0.00 in0.0 mm 0.00 in0.0 mm 0.00 in0.0 mm
01:03 AM 24.8°F-4.0°C 23.9°F-4.5°C 96% Calm Calm 1.0 mph1.6 kmh 30.44 in1030.8 mb 0.00 in0.0 mm 0.00 in0.0 mm 0.00 in0.0 mm
12:53 AM 24.6°F-4.1°C 23.7°F-4.6°C 96% Calm Calm -- 30.43 in1030.5 mb 0.00 in0.0 mm 0.00 in0.0 mm 0.00 in0.0 mm
12:43 AM 24.8°F-4.0°C 23.9°F-4.5°C 96% Calm Calm -- 30.42 in1030.1 mb 0.00 in0.0 mm 0.00 in0.0 mm 0.00 in0.0 mm
12:33 AM 25.0°F-3.9°C 24.1°F-4.4°C 96% Calm Calm -- 30.41 in1029.8 mb 0.00 in0.0 mm 0.00 in0.0 mm 0.00 in0.0 mm
12:23 AM 25.3°F-3.7°C 24.4°F-4.2°C 96% Calm Calm -- 30.40 in1029.5 mb 0.00 in0.0 mm 0.00 in0.0 mm 0.00 in0.0 mm
12:13 AM 25.5°F-3.6°C 24.6°F-4.1°C 96% Calm Calm 0.9 mph1.4 kmh 30.40 in1029.5 mb 0.00 in0.0 mm 0.00 in0.0 mm 0.00 in0.0 mm
12:03 AM 25.3°F-3.7°C 24.4°F-4.2°C 96% Calm Calm -- 30.40 in1029.5 mb 0.00 in0.0 mm 0.00 in0.0 mm 0.00 in0.0 mm